sensor_id;sensor_type;location;lat;lon;timestamp;pressure;altitude;pressure_sealevel;temperature;humidity
68871;BME280;55906;52.278;6.808;2023-02-13T00:00:49;103691.41;;;9.38;75.76
68871;BME280;55906;52.278;6.808;2023-02-13T00:03:15;103696.53;;;9.36;75.54
68871;BME280;55906;52.278;6.808;2023-02-13T00:05:42;103688.66;;;9.36;75.56
68871;BME280;55906;52.278;6.808;2023-02-13T00:08:08;103693.69;;;9.33;76.05
68871;BME280;55906;52.278;6.808;2023-02-13T00:10:35;103690.13;;;9.33;75.57
68871;BME280;55906;52.278;6.808;2023-02-13T00:13:03;103683.84;;;9.30;75.39
68871;BME280;55906;52.278;6.808;2023-02-13T00:15:30;103679.28;;;9.28;75.65
68871;BME280;55906;52.278;6.808;2023-02-13T00:17:57;103676.53;;;9.26;75.75
68871;BME280;55906;52.278;6.808;2023-02-13T00:20:24;103681.09;;;9.29;75.62
68871;BME280;55906;52.278;6.808;2023-02-13T00:22:51;103679.28;;;9.28;75.63
68871;BME280;55906;52.278;6.808;2023-02-13T00:25:17;103672.19;;;9.27;75.88
68871;BME280;55906;52.278;6.808;2023-02-13T00:27:44;103676.41;;;9.25;75.76
68871;BME280;55906;52.278;6.808;2023-02-13T00:32:40;103673.44;;;9.20;75.75
68871;BME280;55906;52.278;6.808;2023-02-13T00:35:07;103679.38;;;9.18;75.58
68871;BME280;55906;52.278;6.808;2023-02-13T00:37:33;103680.16;;;9.17;75.62
68871;BME280;55906;52.278;6.808;2023-02-13T00:40:00;103678.34;;;9.16;75.90
68871;BME280;55906;52.278;6.808;2023-02-13T00:42:27;103679.13;;;9.15;75.77
68871;BME280;55906;52.278;6.808;2023-02-13T00:44:53;103674.00;;;9.16;75.73
68871;BME280;55906;52.278;6.808;2023-02-13T00:47:21;103676.41;;;9.13;75.82
68871;BME280;55906;52.278;6.808;2023-02-13T00:49:48;103677.84;;;9.10;75.94
68871;BME280;55906;52.278;6.808;2023-02-13T00:52:14;103673.25;;;9.07;76.10
68871;BME280;55906;52.278;6.808;2023-02-13T00:54:41;103674.06;;;9.06;76.00
68871;BME280;55906;52.278;6.808;2023-02-13T00:57:08;103670.53;;;9.06;75.93
68871;BME280;55906;52.278;6.808;2023-02-13T00:59:34;103669.59;;;9.05;76.05
68871;BME280;55906;52.278;6.808;2023-02-13T01:02:01;103674.84;;;9.05;76.00
68871;BME280;55906;52.278;6.808;2023-02-13T01:04:29;103671.06;;;9.02;76.22
68871;BME280;55906;52.278;6.808;2023-02-13T01:06:55;103676.22;;;9.00;76.01
68871;BME280;55906;52.278;6.808;2023-02-13T01:09:22;103679.63;;;8.99;76.17
68871;BME280;55906;52.278;6.808;2023-02-13T01:11:49;103676.22;;;9.00;76.10
68871;BME280;55906;52.278;6.808;2023-02-13T01:14:16;103681.47;;;9.00;76.06
68871;BME280;55906;52.278;6.808;2023-02-13T01:16:42;103676.88;;;8.97;76.30
68871;BME280;55906;52.278;6.808;2023-02-13T01:19:09;103673.47;;;8.98;76.17
68871;BME280;55906;52.278;6.808;2023-02-13T01:21:37;103674.38;;;8.99;76.53
68871;BME280;55906;52.278;6.808;2023-02-13T01:24:04;103676.09;;;8.98;76.37
68871;BME280;55906;52.278;6.808;2023-02-13T01:26:31;103675.06;;;8.96;76.51
68871;BME280;55906;52.278;6.808;2023-02-13T01:28:58;103667.97;;;8.95;76.36
68871;BME280;55906;52.278;6.808;2023-02-13T01:31:25;103680.31;;;8.96;76.05
68871;BME280;55906;52.278;6.808;2023-02-13T01:33:55;103670.47;;;8.94;76.42
68871;BME280;55906;52.278;6.808;2023-02-13T01:36:22;103676.41;;;8.91;75.93
68871;BME280;55906;52.278;6.808;2023-02-13T01:38:53;103663.28;;;8.91;76.39
68871;BME280;55906;52.278;6.808;2023-02-13T01:41:20;103666.59;;;8.89;76.34
68871;BME280;55906;52.278;6.808;2023-02-13T01:43:49;103667.50;;;8.89;76.47
68871;BME280;55906;52.278;6.808;2023-02-13T01:46:20;103665.00;;;8.91;76.28
68871;BME280;55906;52.278;6.808;2023-02-13T01:48:48;103666.72;;;8.90;76.57
68871;BME280;55906;52.278;6.808;2023-02-13T01:51:19;103660.44;;;8.88;76.69
68871;BME280;55906;52.278;6.808;2023-02-13T01:53:53;103659.28;;;8.85;76.45
68871;BME280;55906;52.278;6.808;2023-02-13T01:56:24;103662.94;;;8.87;76.81
68871;BME280;55906;52.278;6.808;2023-02-13T01:58:55;103667.16;;;8.85;77.02
68871;BME280;55906;52.278;6.808;2023-02-13T02:01:24;103659.94;;;8.82;76.29
68871;BME280;55906;52.278;6.808;2023-02-13T02:03:54;103658.34;;;8.84;76.77
68871;BME280;55906;52.278;6.808;2023-02-13T02:06:26;103660.06;;;8.84;76.77
68871;BME280;55906;52.278;6.808;2023-02-13T02:08:57;103651.28;;;8.83;76.83
68871;BME280;55906;52.278;6.808;2023-02-13T02:11:31;103650.38;;;8.83;76.90
68871;BME280;55906;52.278;6.808;2023-02-13T02:14:00;103647.75;;;8.83;76.83
68871;BME280;55906;52.278;6.808;2023-02-13T02:16:27;103653.00;;;8.83;76.58
68871;BME280;55906;52.278;6.808;2023-02-13T02:18:54;103647.63;;;8.81;77.23
68871;BME280;55906;52.278;6.808;2023-02-13T02:24:45;103651.03;;;8.80;77.19
68871;BME280;55906;52.278;6.808;2023-02-13T02:27:43;103641.22;;;8.78;76.79
68871;BME280;55906;52.278;6.808;2023-02-13T02:30:46;103641.34;;;8.79;77.17
68871;BME280;55906;52.278;6.808;2023-02-13T02:33:28;103639.63;;;8.80;77.30
68871;BME280;55906;52.278;6.808;2023-02-13T02:36:11;103643.84;;;8.78;77.19
68871;BME280;55906;52.278;6.808;2023-02-13T02:38:55;103636.09;;;8.79;76.72
68871;BME280;55906;52.278;6.808;2023-02-13T02:41:33;103640.53;;;8.80;77.10
68871;BME280;55906;52.278;6.808;2023-02-13T02:44:14;103633.78;;;8.72;76.97
68871;BME280;55906;52.278;6.808;2023-02-13T02:46:55;103633.22;;;8.76;76.89
68871;BME280;55906;52.278;6.808;2023-02-13T02:49:45;103635.50;;;8.72;77.04
68871;BME280;55906;52.278;6.808;2023-02-13T02:52:30;103638.25;;;8.73;77.03
68871;BME280;55906;52.278;6.808;2023-02-13T02:55:03;103636.41;;;8.72;76.92
68871;BME280;55906;52.278;6.808;2023-02-13T02:57:34;103637.31;;;8.73;76.89
68871;BME280;55906;52.278;6.808;2023-02-13T03:00:19;103630.38;;;8.73;76.79
68871;BME280;55906;52.278;6.808;2023-02-13T03:03:08;103626.81;;;8.73;77.02
68871;BME280;55906;52.278;6.808;2023-02-13T03:05:57;103622.50;;;8.73;77.05
68871;BME280;55906;52.278;6.808;2023-02-13T03:08:39;103626.81;;;8.73;76.99
68871;BME280;55906;52.278;6.808;2023-02-13T03:11:25;103625.13;;;8.73;76.92
68871;BME280;55906;52.278;6.808;2023-02-13T03:14:10;103625.22;;;8.75;76.92
68871;BME280;55906;52.278;6.808;2023-02-13T03:16:39;103623.41;;;8.74;77.03
68871;BME280;55906;52.278;6.808;2023-02-13T03:19:32;103627.97;;;8.76;77.09
68871;BME280;55906;52.278;6.808;2023-02-13T03:22:30;103628.78;;;8.75;77.13
68871;BME280;55906;52.278;6.808;2023-02-13T03:25:07;103622.72;;;8.76;77.26
68871;BME280;55906;52.278;6.808;2023-02-13T03:27:41;103630.59;;;8.76;77.16
68871;BME280;55906;52.278;6.808;2023-02-13T03:30:37;103637.69;;;8.77;77.10
68871;BME280;55906;52.278;6.808;2023-02-13T03:33:17;103639.38;;;8.77;77.07
68871;BME280;55906;52.278;6.808;2023-02-13T03:35:51;103635.06;;;8.77;77.18
68871;BME280;55906;52.278;6.808;2023-02-13T03:38:47;103631.63;;;8.78;76.85
68871;BME280;55906;52.278;6.808;2023-02-13T03:41:20;103629.69;;;8.76;77.05
68871;BME280;55906;52.278;6.808;2023-02-13T03:43:57;103642.38;;;8.81;77.24
68871;BME280;55906;52.278;6.808;2023-02-13T03:46:28;103634.38;;;8.80;77.21
68871;BME280;55906;52.278;6.808;2023-02-13T03:48:57;103642.50;;;8.83;77.25
68871;BME280;55906;52.278;6.808;2023-02-13T03:51:44;103632.09;;;8.84;76.97
68871;BME280;55906;52.278;6.808;2023-02-13T03:54:19;103633.94;;;8.85;77.28
68871;BME280;55906;52.278;6.808;2023-02-13T03:57:02;103627.66;;;8.83;77.42
68871;BME280;55906;52.278;6.808;2023-02-13T03:59:46;103623.31;;;8.84;77.19
68871;BME280;55906;52.278;6.808;2023-02-13T04:02:16;103632.09;;;8.84;77.47
68871;BME280;55906;52.278;6.808;2023-02-13T04:04:50;103636.56;;;8.85;77.32
68871;BME280;55906;52.278;6.808;2023-02-13T04:07:20;103635.66;;;8.85;77.52
68871;BME280;55906;52.278;6.808;2023-02-13T04:09:58;103641.81;;;8.85;77.46
68871;BME280;55906;52.278;6.808;2023-02-13T04:12:34;103641.00;;;8.86;77.10
68871;BME280;55906;52.278;6.808;2023-02-13T04:15:07;103640.09;;;8.86;77.42
68871;BME280;55906;52.278;6.808;2023-02-13T04:17:38;103636.69;;;8.87;77.47
68871;BME280;55906;52.278;6.808;2023-02-13T04:20:07;103632.34;;;8.87;77.22
68871;BME280;55906;52.278;6.808;2023-02-13T04:22:40;103628.13;;;8.89;77.46
68871;BME280;55906;52.278;6.808;2023-02-13T04:25:09;103625.50;;;8.89;77.93
68871;BME280;55906;52.278;6.808;2023-02-13T04:27:36;103626.19;;;8.87;77.84
68871;BME280;55906;52.278;6.808;2023-02-13T04:30:03;103625.50;;;8.89;77.37
68871;BME280;55906;52.278;6.808;2023-02-13T04:32:30;103626.41;;;8.90;77.59
68871;BME280;55906;52.278;6.808;2023-02-13T04:34:56;103624.59;;;8.89;77.75
68871;BME280;55906;52.278;6.808;2023-02-13T04:37:23;103626.31;;;8.88;77.62
68871;BME280;55906;52.278;6.808;2023-02-13T04:39:50;103628.00;;;8.88;77.59
68871;BME280;55906;52.278;6.808;2023-02-13T04:42:18;103638.38;;;8.86;77.46
68871;BME280;55906;52.278;6.808;2023-02-13T04:44:44;103620.94;;;8.87;77.84
68871;BME280;55906;52.278;6.808;2023-02-13T04:47:11;103621.84;;;8.87;77.58
68871;BME280;55906;52.278;6.808;2023-02-13T04:49:37;103614.88;;;8.88;77.65
68871;BME280;55906;52.278;6.808;2023-02-13T04:52:04;103610.44;;;8.87;77.66
68871;BME280;55906;52.278;6.808;2023-02-13T04:54:30;103619.09;;;8.86;77.74
68871;BME280;55906;52.278;6.808;2023-02-13T04:56:57;103612.16;;;8.86;77.98
68871;BME280;55906;52.278;6.808;2023-02-13T04:59:25;103608.72;;;8.87;77.78
68871;BME280;55906;52.278;6.808;2023-02-13T05:01:52;103612.16;;;8.86;77.83
68871;BME280;55906;52.278;6.808;2023-02-13T05:04:18;103618.19;;;8.85;77.77
68871;BME280;55906;52.278;6.808;2023-02-13T05:06:45;103612.94;;;8.85;77.91
68871;BME280;55906;52.278;6.808;2023-02-13T05:09:12;103610.19;;;8.84;78.09
68871;BME280;55906;52.278;6.808;2023-02-13T05:11:38;103610.31;;;8.85;78.06
68871;BME280;55906;52.278;6.808;2023-02-13T05:14:05;103617.28;;;8.85;78.32
68871;BME280;55906;52.278;6.808;2023-02-13T05:16:33;103613.84;;;8.86;77.89
68871;BME280;55906;52.278;6.808;2023-02-13T05:18:59;103609.41;;;8.85;78.17
68871;BME280;55906;52.278;6.808;2023-02-13T05:21:26;103610.19;;;8.84;78.23
68871;BME280;55906;52.278;6.808;2023-02-13T05:24:10;103605.88;;;8.84;78.23
68871;BME280;55906;52.278;6.808;2023-02-13T05:26:37;103604.28;;;8.86;78.02
68871;BME280;55906;52.278;6.808;2023-02-13T05:29:03;103610.44;;;8.87;78.10
68871;BME280;55906;52.278;6.808;2023-02-13T05:31:49;103603.34;;;8.86;78.32
68871;BME280;55906;52.278;6.808;2023-02-13T05:34:18;103611.09;;;8.84;78.26
68871;BME280;55906;52.278;6.808;2023-02-13T05:36:44;103616.34;;;8.84;78.17
68871;BME280;55906;52.278;6.808;2023-02-13T05:39:11;103607.56;;;8.84;78.36
68871;BME280;55906;52.278;6.808;2023-02-13T05:41:38;103606.78;;;8.85;78.25
68871;BME280;55906;52.278;6.808;2023-02-13T05:44:04;103595.47;;;8.86;78.13
68871;BME280;55906;52.278;6.808;2023-02-13T05:46:31;103599.00;;;8.86;78.14
68871;BME280;55906;52.278;6.808;2023-02-13T05:48:59;103601.88;;;8.89;78.02
68871;BME280;55906;52.278;6.808;2023-02-13T05:51:26;103599.25;;;8.89;78.20
68871;BME280;55906;52.278;6.808;2023-02-13T05:53:53;103604.50;;;8.89;78.35
68871;BME280;55906;52.278;6.808;2023-02-13T05:56:19;103604.50;;;8.89;77.99
68871;BME280;55906;52.278;6.808;2023-02-13T05:58:46;103598.22;;;8.87;78.38
68871;BME280;55906;52.278;6.808;2023-02-13T06:01:13;103606.22;;;8.89;78.38
68871;BME280;55906;52.278;6.808;2023-02-13T06:03:39;103604.50;;;8.89;78.32
68871;BME280;55906;52.278;6.808;2023-02-13T06:06:07;103606.31;;;8.90;78.26
68871;BME280;55906;52.278;6.808;2023-02-13T06:08:34;103604.63;;;8.91;77.90
68871;BME280;55906;52.278;6.808;2023-02-13T06:11:02;103610.56;;;8.88;78.50
68871;BME280;55906;52.278;6.808;2023-02-13T06:13:29;103607.13;;;8.89;78.93
68871;BME280;55906;52.278;6.808;2023-02-13T06:15:56;103616.84;;;8.90;78.78
68871;BME280;55906;52.278;6.808;2023-02-13T06:18:23;103611.59;;;8.90;78.53
68871;BME280;55906;52.278;6.808;2023-02-13T06:20:50;103614.31;;;8.92;78.71
68871;BME280;55906;52.278;6.808;2023-02-13T06:23:18;103619.56;;;8.92;78.81
68871;BME280;55906;52.278;6.808;2023-02-13T06:25:45;103626.66;;;8.93;78.57
68871;BME280;55906;52.278;6.808;2023-02-13T06:28:11;103624.81;;;8.92;78.64
68871;BME280;55906;52.278;6.808;2023-02-13T06:30:38;103620.50;;;8.92;78.48
68871;BME280;55906;52.278;6.808;2023-02-13T06:33:05;103628.47;;;8.94;78.80
68871;BME280;55906;52.278;6.808;2023-02-13T06:35:32;103635.31;;;8.92;78.89
68871;BME280;55906;52.278;6.808;2023-02-13T06:37:58;103624.94;;;8.93;78.78
68871;BME280;55906;52.278;6.808;2023-02-13T06:40:26;103624.16;;;8.94;78.78
68871;BME280;55906;52.278;6.808;2023-02-13T06:42:53;103640.94;;;8.96;78.80
68871;BME280;55906;52.278;6.808;2023-02-13T06:45:19;103633.84;;;8.95;78.71
68871;BME280;55906;52.278;6.808;2023-02-13T06:47:47;103640.13;;;8.97;78.69
68871;BME280;55906;52.278;6.808;2023-02-13T06:50:15;103643.56;;;8.96;78.60
68871;BME280;55906;52.278;6.808;2023-02-13T06:52:45;103645.38;;;8.97;78.68
68871;BME280;55906;52.278;6.808;2023-02-13T06:55:12;103648.56;;;8.93;78.73
68871;BME280;55906;52.278;6.808;2023-02-13T06:57:40;103656.69;;;8.96;78.85
68871;BME280;55906;52.278;6.808;2023-02-13T07:00:08;103659.31;;;8.96;78.88
68871;BME280;55906;52.278;6.808;2023-02-13T07:02:37;103663.75;;;8.97;78.73
68871;BME280;55906;52.278;6.808;2023-02-13T07:05:04;103657.72;;;8.98;78.62
68871;BME280;55906;52.278;6.808;2023-02-13T07:07:32;103664.78;;;8.99;78.98
68871;BME280;55906;52.278;6.808;2023-02-13T07:09:58;103658.75;;;9.01;78.68
68871;BME280;55906;52.278;6.808;2023-02-13T07:12:25;103665.03;;;9.03;78.84
68871;BME280;55906;52.278;6.808;2023-02-13T07:14:53;103660.69;;;9.03;78.80
68871;BME280;55906;52.278;6.808;2023-02-13T07:17:20;103666.19;;;9.06;78.46
68871;BME280;55906;52.278;6.808;2023-02-13T07:19:46;103658.41;;;9.08;78.86
68871;BME280;55906;52.278;6.808;2023-02-13T07:22:13;103661.84;;;9.07;78.53
68871;BME280;55906;52.278;6.808;2023-02-13T07:24:39;103661.84;;;9.07;78.73
68871;BME280;55906;52.278;6.808;2023-02-13T07:27:06;103664.59;;;9.08;78.71
68871;BME280;55906;52.278;6.808;2023-02-13T07:29:32;103664.59;;;9.08;78.76
68871;BME280;55906;52.278;6.808;2023-02-13T07:32:00;103662.09;;;9.10;78.81
68871;BME280;55906;52.278;6.808;2023-02-13T07:34:27;103663.94;;;9.11;79.03
68871;BME280;55906;52.278;6.808;2023-02-13T07:36:54;103663.94;;;9.11;78.76
68871;BME280;55906;52.278;6.808;2023-02-13T07:39:20;103669.44;;;9.14;78.95
68871;BME280;55906;52.278;6.808;2023-02-13T07:41:47;103667.28;;;9.20;78.87
68871;BME280;55906;52.278;6.808;2023-02-13T07:44:13;103663.06;;;9.22;78.80
68871;BME280;55906;52.278;6.808;2023-02-13T07:46:40;103667.63;;;9.24;78.84
68871;BME280;55906;52.278;6.808;2023-02-13T07:49:08;103666.94;;;9.27;78.90
68871;BME280;55906;52.278;6.808;2023-02-13T07:51:35;103672.53;;;9.32;78.72
68871;BME280;55906;52.278;6.808;2023-02-13T07:54:01;103668.22;;;9.32;78.53
68871;BME280;55906;52.278;6.808;2023-02-13T07:56:28;103668.22;;;9.32;78.50
68871;BME280;55906;52.278;6.808;2023-02-13T07:58:55;103669.47;;;9.37;78.63
68871;BME280;55906;52.278;6.808;2023-02-13T08:01:22;103669.69;;;9.40;78.49
68871;BME280;55906;52.278;6.808;2023-02-13T08:03:49;103676.91;;;9.43;78.30
68871;BME280;55906;52.278;6.808;2023-02-13T08:06:18;103674.50;;;9.46;78.06
68871;BME280;55906;52.278;6.808;2023-02-13T08:08:45;103669.25;;;9.46;78.32
68871;BME280;55906;52.278;6.808;2023-02-13T08:11:22;103670.63;;;9.52;78.45
68871;BME280;55906;52.278;6.808;2023-02-13T08:14:07;103670.84;;;9.55;78.09
68871;BME280;55906;52.278;6.808;2023-02-13T08:16:34;103673.03;;;9.61;78.17
68871;BME280;55906;52.278;6.808;2023-02-13T08:19:01;103664.81;;;9.68;77.91
68871;BME280;55906;52.278;6.808;2023-02-13T08:21:29;103664.00;;;9.69;77.90
68871;BME280;55906;52.278;6.808;2023-02-13T08:23:56;103665.16;;;9.73;77.63
68871;BME280;55906;52.278;6.808;2023-02-13T08:26:22;103665.16;;;9.73;77.46
68871;BME280;55906;52.278;6.808;2023-02-13T08:28:49;103676.13;;;9.79;77.39
68871;BME280;55906;52.278;6.808;2023-02-13T08:31:16;103672.00;;;9.82;77.00
68871;BME280;55906;52.278;6.808;2023-02-13T08:33:43;103672.22;;;9.85;77.08
68871;BME280;55906;52.278;6.808;2023-02-13T08:36:10;103681.13;;;9.87;76.76
68871;BME280;55906;52.278;6.808;2023-02-13T08:38:38;103679.06;;;9.95;76.67
68871;BME280;55906;52.278;6.808;2023-02-13T08:41:05;103681.25;;;10.01;76.20
68871;BME280;55906;52.278;6.808;2023-02-13T08:43:31;103680.31;;;10.00;75.74
68871;BME280;55906;52.278;6.808;2023-02-13T08:45:58;103681.34;;;10.02;75.68
68871;BME280;55906;52.278;6.808;2023-02-13T08:48:25;103673.81;;;10.07;75.72
68871;BME280;55906;52.278;6.808;2023-02-13T08:50:52;103679.06;;;10.07;75.17
68871;BME280;55906;52.278;6.808;2023-02-13T08:53:19;103681.81;;;10.08;74.66
68871;BME280;55906;52.278;6.808;2023-02-13T08:55:52;103679.63;;;10.14;74.98
68871;BME280;55906;52.278;6.808;2023-02-13T08:58:19;103684.28;;;10.18;74.95
68871;BME280;55906;52.278;6.808;2023-02-13T09:00:45;103684.56;;;10.21;74.60
68871;BME280;55906;52.278;6.808;2023-02-13T09:03:12;103683.16;;;10.26;74.22
68871;BME280;55906;52.278;6.808;2023-02-13T09:05:39;103679.16;;;10.32;74.38
68871;BME280;55906;52.278;6.808;2023-02-13T09:08:06;103683.41;;;10.30;74.23
68871;BME280;55906;52.278;6.808;2023-02-13T09:10:36;103683.25;;;10.40;74.27
68871;BME280;55906;52.278;6.808;2023-02-13T09:13:04;103679.97;;;10.42;73.86
68871;BME280;55906;52.278;6.808;2023-02-13T09:15:32;103692.88;;;10.51;73.25
68871;BME280;55906;52.278;6.808;2023-02-13T09:17:58;103695.38;;;10.49;72.72
68871;BME280;55906;52.278;6.808;2023-02-13T09:20:25;103695.59;;;10.52;72.62
68871;BME280;55906;52.278;6.808;2023-02-13T09:22:53;103697.97;;;10.61;73.13
68871;BME280;55906;52.278;6.808;2023-02-13T09:25:20;103690.41;;;10.66;72.41
68871;BME280;55906;52.278;6.808;2023-02-13T09:27:47;103699.34;;;10.68;72.63
68871;BME280;55906;52.278;6.808;2023-02-13T09:30:15;103707.22;;;10.68;72.21
68871;BME280;55906;52.278;6.808;2023-02-13T09:32:47;103698.63;;;10.70;71.96
68871;BME280;55906;52.278;6.808;2023-02-13T09:35:15;103700.69;;;10.74;71.29
68871;BME280;55906;52.278;6.808;2023-02-13T09:37:41;103703.03;;;10.83;71.09
68871;BME280;55906;52.278;6.808;2023-02-13T09:40:15;103695.47;;;10.87;70.31
68871;BME280;55906;52.278;6.808;2023-02-13T09:42:43;103696.69;;;10.93;70.04
68871;BME280;55906;52.278;6.808;2023-02-13T09:45:11;103691.66;;;10.96;70.13
68871;BME280;55906;52.278;6.808;2023-02-13T09:47:42;103695.72;;;11.04;69.52
68871;BME280;55906;52.278;6.808;2023-02-13T09:50:12;103694.44;;;11.10;69.39
68871;BME280;55906;52.278;6.808;2023-02-13T09:52:43;103697.81;;;11.21;69.20
68871;BME280;55906;52.278;6.808;2023-02-13T09:55:15;103693.97;;;11.29;68.67
68871;BME280;55906;52.278;6.808;2023-02-13T09:57:46;103689.03;;;11.34;68.34
68871;BME280;55906;52.278;6.808;2023-02-13T10:00:20;103697.53;;;11.43;68.08
68871;BME280;55906;52.278;6.808;2023-02-13T10:03:11;103695.84;;;11.57;67.34
68871;BME280;55906;52.278;6.808;2023-02-13T10:05:46;103699.81;;;11.63;67.41
68871;BME280;55906;52.278;6.808;2023-02-13T10:08:28;103701.94;;;11.69;65.16
68871;BME280;55906;52.278;6.808;2023-02-13T10:11:02;103704.47;;;11.67;66.78
68871;BME280;55906;52.278;6.808;2023-02-13T10:13:50;103704.91;;;11.73;65.69
68871;BME280;55906;52.278;6.808;2023-02-13T10:16:22;103701.94;;;11.69;64.83
68871;BME280;55906;52.278;6.808;2023-02-13T10:18:54;103702.84;;;11.69;65.35
68871;BME280;55906;52.278;6.808;2023-02-13T10:21:27;103699.31;;;11.69;65.24
68871;BME280;55906;52.278;6.808;2023-02-13T10:23:58;103695.28;;;11.74;65.17
68871;BME280;55906;52.278;6.808;2023-02-13T10:26:31;103689.63;;;11.81;65.24
68871;BME280;55906;52.278;6.808;2023-02-13T10:29:12;103695.63;;;11.92;65.54
68871;BME280;55906;52.278;6.808;2023-02-13T10:32:00;103694.59;;;12.03;65.30
68871;BME280;55906;52.278;6.808;2023-02-13T10:34:33;103686.78;;;12.04;63.15
68871;BME280;55906;52.278;6.808;2023-02-13T10:37:07;103685.78;;;11.89;63.24
68871;BME280;55906;52.278;6.808;2023-02-13T10:39:36;103686.78;;;11.91;63.82
68871;BME280;55906;52.278;6.808;2023-02-13T10:42:13;103679.47;;;12.00;63.50
68871;BME280;55906;52.278;6.808;2023-02-13T10:44:51;103690.22;;;12.16;63.97
68871;BME280;55906;52.278;6.808;2023-02-13T10:47:33;103679.53;;;12.28;63.54
68871;BME280;55906;52.278;6.808;2023-02-13T10:50:13;103671.53;;;12.27;62.72
68871;BME280;55906;52.278;6.808;2023-02-13T10:52:49;103678.41;;;12.38;63.47
68871;BME280;55906;52.278;6.808;2023-02-13T10:55:34;103679.78;;;12.46;62.34
68871;BME280;55906;52.278;6.808;2023-02-13T10:58:11;103682.63;;;12.49;63.17
68871;BME280;55906;52.278;6.808;2023-02-13T11:00:42;103681.63;;;12.47;63.38
68871;BME280;55906;52.278;6.808;2023-02-13T11:03:17;103673.31;;;12.41;62.93
68871;BME280;55906;52.278;6.808;2023-02-13T11:05:45;103673.47;;;12.57;63.60
68871;BME280;55906;52.278;6.808;2023-02-13T11:08:17;103679.03;;;12.62;62.31
68871;BME280;55906;52.278;6.808;2023-02-13T11:10:45;103671.81;;;12.59;61.46
68871;BME280;55906;52.278;6.808;2023-02-13T11:13:17;103662.84;;;12.70;62.17
68871;BME280;55906;52.278;6.808;2023-02-13T11:15:59;103656.25;;;12.92;61.40
68871;BME280;55906;52.278;6.808;2023-02-13T11:18:28;103659.66;;;13.04;60.98
68871;BME280;55906;52.278;6.808;2023-02-13T11:21:04;103663.91;;;13.30;60.75
68871;BME280;55906;52.278;6.808;2023-02-13T11:23:36;103655.41;;;13.65;60.88
68871;BME280;55906;52.278;6.808;2023-02-13T11:26:05;103650.41;;;14.00;60.31
68871;BME280;55906;52.278;6.808;2023-02-13T11:28:36;103649.06;;;14.54;59.52
68871;BME280;55906;52.278;6.808;2023-02-13T11:31:20;103650.78;;;14.70;55.45
68871;BME280;55906;52.278;6.808;2023-02-13T11:33:47;103649.88;;;14.86;58.75
68871;BME280;55906;52.278;6.808;2023-02-13T11:36:21;103630.06;;;14.95;58.81
68871;BME280;55906;52.278;6.808;2023-02-13T11:38:56;103635.44;;;14.97;57.53
68871;BME280;55906;52.278;6.808;2023-02-13T11:41:24;103630.56;;;14.88;54.99
68871;BME280;55906;52.278;6.808;2023-02-13T11:43:53;103630.06;;;14.79;56.32
68871;BME280;55906;52.278;6.808;2023-02-13T11:46:27;103633.56;;;14.78;54.53
68871;BME280;55906;52.278;6.808;2023-02-13T11:48:58;103634.81;;;14.68;54.99
68871;BME280;55906;52.278;6.808;2023-02-13T11:51:39;103635.13;;;14.58;54.20
68871;BME280;55906;52.278;6.808;2023-02-13T11:54:26;103632.28;;;15.04;54.04
68871;BME280;55906;52.278;6.808;2023-02-13T11:56:56;103613.59;;;15.88;53.17
68871;BME280;55906;52.278;6.808;2023-02-13T11:59:24;103627.59;;;16.04;50.42
68871;BME280;55906;52.278;6.808;2023-02-13T12:02:03;103628.69;;;16.26;51.90
68871;BME280;55906;52.278;6.808;2023-02-13T12:04:38;103622.94;;;16.17;50.76
68871;BME280;55906;52.278;6.808;2023-02-13T12:07:12;103624.91;;;16.21;50.13
68871;BME280;55906;52.278;6.808;2023-02-13T12:09:43;103617.31;;;16.29;51.58
68871;BME280;55906;52.278;6.808;2023-02-13T12:12:16;103618.84;;;16.43;51.12
68871;BME280;55906;52.278;6.808;2023-02-13T12:14:44;103613.09;;;17.11;50.74
68871;BME280;55906;52.278;6.808;2023-02-13T12:17:14;103612.19;;;17.96;49.21
68871;BME280;55906;52.278;6.808;2023-02-13T12:19:43;103603.28;;;18.62;45.33
68871;BME280;55906;52.278;6.808;2023-02-13T12:22:24;103607.31;;;19.51;44.50
68871;BME280;55906;52.278;6.808;2023-02-13T12:27:51;103592.81;;;20.88;44.32
68871;BME280;55906;52.278;6.808;2023-02-13T12:31:02;103582.09;;;21.56;39.98
68871;BME280;55906;52.278;6.808;2023-02-13T12:36:35;103580.56;;;22.45;42.09
68871;BME280;55906;52.278;6.808;2023-02-13T12:39:16;103579.38;;;22.76;37.08
68871;BME280;55906;52.278;6.808;2023-02-13T12:41:48;103575.50;;;23.07;40.22
68871;BME280;55906;52.278;6.808;2023-02-13T12:44:26;103568.47;;;23.65;36.55
68871;BME280;55906;52.278;6.808;2023-02-13T12:47:05;103561.66;;;23.91;36.43
68871;BME280;55906;52.278;6.808;2023-02-13T12:49:55;103558.63;;;24.32;35.06
68871;BME280;55906;52.278;6.808;2023-02-13T12:52:33;103557.50;;;24.16;35.02
68871;BME280;55906;52.278;6.808;2023-02-13T12:55:34;103551.47;;;23.68;32.93
68871;BME280;55906;52.278;6.808;2023-02-13T12:58:18;103555.38;;;23.91;32.76
68871;BME280;55906;52.278;6.808;2023-02-13T13:00:56;103547.28;;;23.88;32.21
68871;BME280;55906;52.278;6.808;2023-02-13T13:03:34;103546.94;;;24.29;33.01
68871;BME280;55906;52.278;6.808;2023-02-13T13:06:19;103544.63;;;24.64;32.08
68871;BME280;55906;52.278;6.808;2023-02-13T13:09:01;103548.63;;;24.23;31.72
68871;BME280;55906;52.278;6.808;2023-02-13T13:11:47;103545.66;;;24.73;31.18
68871;BME280;55906;52.278;6.808;2023-02-13T13:14:22;103535.06;;;24.90;31.53
68871;BME280;55906;52.278;6.808;2023-02-13T13:16:57;103531.69;;;25.11;31.70
68871;BME280;55906;52.278;6.808;2023-02-13T13:19:34;103532.69;;;25.24;31.33
68871;BME280;55906;52.278;6.808;2023-02-13T13:22:06;103530.31;;;25.68;32.95
68871;BME280;55906;52.278;6.808;2023-02-13T13:24:44;103535.34;;;25.19;30.88
68871;BME280;55906;52.278;6.808;2023-02-13T13:27:18;103532.41;;;24.95;29.91
68871;BME280;55906;52.278;6.808;2023-02-13T13:29:51;103524.50;;;25.13;30.48
68871;BME280;55906;52.278;6.808;2023-02-13T13:32:20;103519.38;;;25.49;31.60